createdAt,value
2022-08-14T00:00:13.977Z,100805.56
2022-08-14T00:02:44.898Z,100785.59
2022-08-14T00:05:25.412Z,100798.00
2022-08-14T00:07:55.842Z,100793.63
2022-08-14T00:10:51.306Z,100765.25
2022-08-14T00:13:21.373Z,100796.00
2022-08-14T00:15:54.315Z,100782.88
2022-08-14T00:19:05.393Z,100791.97
2022-08-14T00:21:17.025Z,100785.59
2022-08-14T00:23:54.088Z,100782.41
2022-08-14T00:26:23.723Z,100788.38
2022-08-14T00:28:54.624Z,100784.34
2022-08-14T00:31:35.331Z,100772.81
2022-08-14T00:34:36.063Z,100779.97
2022-08-14T00:37:05.709Z,100777.97
2022-08-14T00:39:35.069Z,100762.81
2022-08-14T00:42:05.714Z,100757.59
2022-08-14T00:44:35.220Z,100772.41
2022-08-14T00:47:10.864Z,100765.59
2022-08-14T00:49:43.351Z,100763.97
2022-08-14T00:52:18.247Z,100764.81
2022-08-14T00:54:58.222Z,100751.97
2022-08-14T00:57:30.548Z,100759.19
2022-08-14T01:00:01.143Z,100743.22
2022-08-14T01:02:32.353Z,100764.00
2022-08-14T01:05:07.880Z,100754.41
2022-08-14T01:07:47.399Z,100722.47
2022-08-14T01:10:23.928Z,100760.41
2022-08-14T01:13:07.066Z,100758.41
2022-08-14T01:15:57.879Z,100749.63
2022-08-14T01:18:57.840Z,100748.78
2022-08-14T01:21:38.779Z,100751.22
2022-08-14T01:24:24.822Z,100750.38
2022-08-14T01:27:00.988Z,100727.25
2022-08-14T01:29:52.764Z,100747.59
2022-08-14T01:32:29.918Z,100730.03
2022-08-14T01:35:20.114Z,100734.41
2022-08-14T01:37:56.443Z,100724.00
2022-08-14T01:40:37.058Z,100720.78
2022-08-14T01:43:18.947Z,100725.16
2022-08-14T01:45:57.838Z,100672.03
2022-08-14T01:48:37.864Z,100722.72
2022-08-14T01:51:19.132Z,100708.75
2022-08-14T01:53:55.886Z,100724.72
2022-08-14T01:56:38.968Z,100712.72
2022-08-14T01:59:18.107Z,100697.53
2022-08-14T02:01:58.438Z,100721.06
2022-08-14T02:04:56.236Z,100706.28
2022-08-14T02:07:34.304Z,100711.84
2022-08-14T02:10:16.637Z,100700.69
2022-08-14T02:12:56.893Z,100700.69
2022-08-14T02:15:27.199Z,100701.06
2022-08-14T02:17:56.670Z,100685.50
2022-08-14T02:20:34.086Z,100679.88
2022-08-14T02:23:05.645Z,100684.28
2022-08-14T02:25:39.533Z,100657.88
2022-08-14T02:28:24.609Z,100675.06
2022-08-14T02:30:58.404Z,100684.94
2022-08-14T02:33:29.429Z,100684.94
2022-08-14T02:37:02.563Z,100674.16
2022-08-14T02:38:53.058Z,100673.72
2022-08-14T02:41:26.340Z,100675.66
2022-08-14T02:44:00.677Z,100678.47
2022-08-14T02:46:32.380Z,100664.16
2022-08-14T02:49:06.278Z,100665.34
2022-08-14T02:51:37.336Z,100664.94
2022-08-14T02:54:09.206Z,100671.31
2022-08-14T02:57:15.966Z,100670.50
2022-08-14T02:59:33.869Z,100667.72
2022-08-14T03:02:05.276Z,100654.16
2022-08-14T03:04:35.046Z,100608.22
2022-08-14T03:07:07.463Z,100655.78
2022-08-14T03:10:26.930Z,100647.00
2022-08-14T03:12:32.842Z,100656.59
2022-08-14T03:15:16.225Z,100640.63
2022-08-14T03:17:56.334Z,100658.13
2022-08-14T03:20:29.000Z,100650.88
2022-08-14T03:23:03.103Z,100652.06
2022-08-14T03:25:37.697Z,100643.66
2022-08-14T03:28:14.356Z,100646.06
2022-08-14T03:30:44.213Z,100633.72
2022-08-14T03:33:15.539Z,100641.69
2022-08-14T03:36:00.217Z,100634.53
2022-08-14T03:39:13.316Z,100620.50
2022-08-14T03:41:33.072Z,100619.72
2022-08-14T03:45:19.013Z,100629.25
2022-08-14T03:47:03.577Z,100626.44
2022-08-14T03:49:33.928Z,100618.47
2022-08-14T03:52:07.877Z,100612.50
2022-08-14T03:55:01.199Z,100592.59
2022-08-14T03:57:37.042Z,100608.44
2022-08-14T04:00:42.974Z,100588.06
2022-08-14T04:03:02.818Z,100586.56
2022-08-14T04:05:42.550Z,100595.69
2022-08-14T04:08:29.729Z,100597.28
2022-08-14T04:11:02.700Z,100599.25
2022-08-14T04:13:34.097Z,100588.84
2022-08-14T04:16:12.371Z,100591.22
2022-08-14T04:18:43.480Z,100574.88
2022-08-14T04:21:13.817Z,100578.84
2022-08-14T04:23:45.674Z,100581.59
2022-08-14T04:26:42.352Z,100567.19
2022-08-14T04:29:15.563Z,100570.03
2022-08-14T04:33:01.662Z,100563.22
2022-08-14T04:34:41.832Z,100568.00
2022-08-14T04:37:29.402Z,100570.41
2022-08-14T04:40:17.054Z,100566.78
2022-08-14T04:43:03.651Z,100556.44
2022-08-14T04:45:40.840Z,100569.91
2022-08-14T04:48:39.112Z,100552.72
2022-08-14T04:51:06.379Z,100564.38
2022-08-14T04:53:42.910Z,100529.19
2022-08-14T04:56:31.645Z,100559.47
2022-08-14T04:59:09.755Z,100559.81
2022-08-14T05:01:47.913Z,100560.97
2022-08-14T05:04:21.763Z,100563.00
2022-08-14T05:06:53.649Z,100559.81
2022-08-14T05:09:28.911Z,100557.06
2022-08-14T05:13:10.785Z,100546.22
2022-08-14T05:14:55.247Z,100555.81
2022-08-14T05:17:32.220Z,100520.16
2022-08-14T05:21:57.613Z,100558.13
2022-08-14T05:23:04.683Z,100553.78
2022-08-14T05:25:34.397Z,100552.59
2022-08-14T05:28:16.286Z,100538.69
2022-08-14T05:30:46.855Z,100541.47
2022-08-14T05:33:18.658Z,100551.41
2022-08-14T05:35:51.057Z,100550.13
2022-08-14T05:38:31.190Z,100529.41
2022-08-14T05:41:02.957Z,100554.19
2022-08-14T05:43:41.595Z,100564.13
2022-08-14T05:46:15.134Z,100546.16
2022-08-14T05:48:45.517Z,100550.63
2022-08-14T05:51:17.067Z,100553.09
2022-08-14T05:54:00.217Z,100534.72
2022-08-14T05:56:31.232Z,100558.72
2022-08-14T05:59:01.818Z,100554.06
2022-08-14T06:01:31.802Z,100555.72
2022-08-14T06:04:01.424Z,100554.19
2022-08-14T06:06:38.345Z,100553.44
2022-08-14T06:09:09.665Z,100543.94
2022-08-14T06:11:39.504Z,100541.22
2022-08-14T06:14:12.377Z,100549.59
2022-08-14T06:16:50.075Z,100548.94
2022-08-14T06:19:23.372Z,100548.63
2022-08-14T06:21:58.448Z,100555.44
2022-08-14T06:24:30.588Z,100549.59
2022-08-14T06:27:09.773Z,100539.38
2022-08-14T06:29:40.408Z,100529.81
2022-08-14T06:32:37.691Z,100535.47
2022-08-14T06:35:04.755Z,100539.50
2022-08-14T06:37:44.304Z,100533.13
2022-08-14T06:40:26.249Z,100544.31
2022-08-14T06:43:00.198Z,100553.53
2022-08-14T06:45:33.443Z,100522.50
2022-08-14T06:48:06.057Z,100548.03
2022-08-14T06:50:35.791Z,100545.25
2022-08-14T06:53:07.409Z,100529.31
2022-08-14T06:55:40.785Z,100538.94
2022-08-14T06:58:28.551Z,100529.75
2022-08-14T07:01:18.409Z,100537.34
2022-08-14T07:04:18.912Z,100533.09
2022-08-14T07:06:55.465Z,100489.66
2022-08-14T07:09:43.521Z,100522.84
2022-08-14T07:12:34.870Z,100532.81
2022-08-14T07:15:04.967Z,100524.47
2022-08-14T07:17:36.265Z,100516.91
2022-08-14T07:20:07.637Z,100513.38
2022-08-14T07:22:56.029Z,100520.97
2022-08-14T07:25:32.529Z,100517.44
2022-08-14T07:28:09.699Z,100519.81
2022-08-14T07:30:50.770Z,100521.78
2022-08-14T07:33:29.264Z,100511.00
2022-08-14T07:36:25.468Z,100522.03
2022-08-14T07:38:53.982Z,100507.09
2022-08-14T07:41:24.927Z,100524.03
2022-08-14T07:44:32.177Z,100519.97
2022-08-14T07:46:53.887Z,100519.91
2022-08-14T07:49:24.586Z,100509.16
2022-08-14T07:51:53.829Z,100510.78
2022-08-14T07:54:29.850Z,100514.00
2022-08-14T07:57:11.924Z,100510.41
2022-08-14T07:59:44.233Z,100509.56
2022-08-14T08:02:18.836Z,100507.81
2022-08-14T08:04:55.398Z,100511.91
2022-08-14T08:07:31.895Z,100514.81
2022-08-14T08:10:46.540Z,100512.50
2022-08-14T08:13:17.260Z,100505.63
2022-08-14T08:15:49.157Z,100513.16
2022-08-14T08:18:27.385Z,100501.66
2022-08-14T08:21:00.232Z,100504.94
2022-08-14T08:23:40.819Z,100502.13
2022-08-14T08:26:12.935Z,100499.78
2022-08-14T08:28:45.208Z,100496.06
2022-08-14T08:31:14.572Z,100497.28
2022-08-14T08:33:46.957Z,100492.19
2022-08-14T08:36:19.194Z,100495.81
2022-08-14T08:39:14.587Z,100496.00
2022-08-14T08:41:50.463Z,100494.47
2022-08-14T08:44:31.914Z,100498.81
2022-08-14T08:47:06.507Z,100495.31
2022-08-14T08:49:48.382Z,100492.59
2022-08-14T08:52:25.456Z,100502.50
2022-08-14T08:54:58.838Z,100499.16
2022-08-14T08:57:28.385Z,100496.59
2022-08-14T09:00:09.876Z,100490.88
2022-08-14T09:03:04.113Z,100500.91
2022-08-14T09:05:36.762Z,100492.50
2022-08-14T09:08:30.953Z,100495.41
2022-08-14T09:11:18.851Z,100501.88
2022-08-14T09:13:52.545Z,100494.00
2022-08-14T09:16:26.347Z,100498.47
2022-08-14T09:18:56.150Z,100486.06
2022-08-14T09:21:31.425Z,100500.25
2022-08-14T09:24:26.491Z,100483.56
2022-08-14T09:26:52.596Z,100489.97
2022-08-14T09:29:23.012Z,100482.56
2022-08-14T09:31:58.259Z,100500.75
2022-08-14T09:34:58.971Z,100474.69
2022-08-14T09:37:53.924Z,100472.47
2022-08-14T09:40:42.219Z,100492.81
2022-08-14T09:43:33.505Z,100488.94
2022-08-14T09:46:09.153Z,100474.41
2022-08-14T09:48:41.120Z,100483.91
2022-08-14T09:51:25.460Z,100490.22
2022-08-14T09:54:18.781Z,100489.00
2022-08-14T09:56:56.665Z,100493.34
2022-08-14T09:59:46.230Z,100494.53
2022-08-14T10:02:28.494Z,100489.81
2022-08-14T10:05:05.150Z,100483.81
2022-08-14T10:07:50.672Z,100487.66
2022-08-14T10:10:34.792Z,100483.03
2022-08-14T10:13:06.957Z,100486.50
2022-08-14T10:15:46.999Z,100478.53
2022-08-14T10:18:22.006Z,100484.03
2022-08-14T10:21:00.931Z,100481.63
2022-08-14T10:23:44.603Z,100476.28
2022-08-14T10:26:22.365Z,100457.00
2022-08-14T10:29:18.874Z,100449.97
2022-08-14T10:31:45.789Z,100455.91
2022-08-14T10:34:21.201Z,100457.94
2022-08-14T10:37:14.276Z,100435.72
2022-08-14T10:39:51.428Z,100448.19
2022-08-14T10:42:40.419Z,100438.53
2022-08-14T10:45:21.938Z,100439.00
2022-08-14T10:48:09.084Z,100416.59
2022-08-14T10:50:45.921Z,100413.53
2022-08-14T10:53:18.051Z,100418.91
2022-08-14T10:55:48.595Z,100422.25
2022-08-14T10:58:32.936Z,100404.44
2022-08-14T11:01:08.057Z,100414.16
2022-08-14T11:03:56.949Z,100391.75
2022-08-14T11:06:27.219Z,100394.78
2022-08-14T11:08:58.595Z,100377.28
2022-08-14T11:11:28.516Z,100379.28
2022-08-14T11:14:09.475Z,100371.03
2022-08-14T11:16:40.653Z,100355.28
2022-08-14T11:19:11.366Z,100359.22
2022-08-14T11:21:45.786Z,100349.41
2022-08-14T11:24:50.516Z,100345.50
2022-08-14T11:27:09.601Z,100341.47
2022-08-14T11:29:41.584Z,100341.03
2022-08-14T11:32:11.172Z,100345.59
2022-08-14T11:34:40.662Z,100336.47
2022-08-14T11:37:19.330Z,100344.28
2022-08-14T11:39:55.603Z,100337.75
2022-08-14T11:42:56.702Z,100331.25
2022-08-14T11:45:23.100Z,100340.69
2022-08-14T11:48:12.740Z,100322.88
2022-08-14T11:50:44.892Z,100329.88
2022-08-14T11:53:25.385Z,100312.94
2022-08-14T11:55:59.500Z,100314.69
2022-08-14T11:58:31.351Z,100323.50
2022-08-14T12:01:06.861Z,100322.69
2022-08-14T12:03:51.169Z,100307.03
2022-08-14T12:06:28.619Z,100312.25
2022-08-14T12:09:14.939Z,100296.38
2022-08-14T12:11:47.239Z,100315.44
2022-08-14T12:14:29.764Z,100246.00
2022-08-14T12:17:04.214Z,100303.34
2022-08-14T12:19:51.263Z,100309.69
2022-08-14T12:22:35.806Z,100296.69
2022-08-14T12:25:11.492Z,100307.69
2022-08-14T12:27:52.544Z,100297.75
2022-08-14T12:30:43.133Z,100292.97
2022-08-14T12:33:30.601Z,100289.06
2022-08-14T12:36:05.551Z,100283.00
2022-08-14T12:38:38.954Z,100292.56
2022-08-14T12:41:20.243Z,100277.34
2022-08-14T12:43:56.793Z,100296.44
2022-08-14T12:46:31.737Z,100286.84
2022-08-14T12:49:06.567Z,100286.88
2022-08-14T12:51:36.298Z,100284.78
2022-08-14T12:54:26.064Z,100293.63
2022-08-14T12:57:07.290Z,100269.06
2022-08-14T12:59:42.744Z,100288.72
2022-08-14T13:02:25.291Z,100289.91
2022-08-14T13:04:58.148Z,100275.53
2022-08-14T13:07:32.604Z,100282.63
2022-08-14T13:10:47.813Z,100284.53
2022-08-14T13:13:13.026Z,100287.09
2022-08-14T13:15:46.506Z,100289.88
2022-08-14T13:18:17.755Z,100276.81
2022-08-14T13:20:57.641Z,100280.16
2022-08-14T13:23:32.033Z,100280.16
2022-08-14T13:26:02.811Z,100279.63
2022-08-14T13:28:41.338Z,100290.97
2022-08-14T13:31:30.346Z,100283.44
2022-08-14T13:34:00.294Z,100294.09
2022-08-14T13:36:54.389Z,100297.63
2022-08-14T13:39:22.269Z,100288.44
2022-08-14T13:41:56.038Z,100282.59
2022-08-14T13:44:29.054Z,100304.75
2022-08-14T13:47:00.183Z,100298.41
2022-08-14T13:49:33.212Z,100302.00
2022-08-14T13:52:48.232Z,100287.69
2022-08-14T13:54:59.640Z,100291.38
2022-08-14T13:57:33.394Z,100282.69
2022-08-14T14:00:08.634Z,100280.66
2022-08-14T14:02:46.391Z,100284.44
2022-08-14T14:05:19.414Z,100281.16
2022-08-14T14:07:54.113Z,100297.50
2022-08-14T14:10:28.479Z,100296.22
2022-08-14T14:12:58.176Z,100294.63
2022-08-14T14:15:33.866Z,100284.38
2022-08-14T14:18:33.855Z,100282.97
2022-08-14T14:21:06.640Z,100286.28
2022-08-14T14:23:39.759Z,100283.06
2022-08-14T14:26:13.759Z,100280.72
2022-08-14T14:28:50.623Z,100274.41
2022-08-14T14:31:29.649Z,100266.56
2022-08-14T14:34:07.493Z,100256.72
2022-08-14T14:36:44.586Z,100257.91
2022-08-14T14:39:25.544Z,100255.19
2022-08-14T14:42:00.698Z,100254.31
2022-08-14T14:44:40.568Z,100258.72
2022-08-14T14:47:12.005Z,100266.66
2022-08-14T14:49:54.739Z,100250.22
2022-08-14T14:52:27.076Z,100257.28
2022-08-14T14:54:58.990Z,100246.22
2022-08-14T14:57:35.568Z,100250.63
2022-08-14T15:00:12.947Z,100249.94
2022-08-14T15:02:44.531Z,100259.97
2022-08-14T15:05:19.071Z,100256.53
2022-08-14T15:07:54.006Z,100248.88
2022-08-14T15:10:27.929Z,100252.53
2022-08-14T15:13:04.036Z,100258.69
2022-08-14T15:15:37.150Z,100257.91
2022-08-14T15:18:36.772Z,100259.50
2022-08-14T15:21:02.703Z,100248.78
2022-08-14T15:23:44.230Z,100242.16
2022-08-14T15:26:24.088Z,100238.56
2022-08-14T15:29:05.182Z,100237.22
2022-08-14T15:31:37.203Z,100251.34
2022-08-14T15:34:44.656Z,100243.09
2022-08-14T15:37:12.793Z,100240.28
2022-08-14T15:39:42.993Z,100250.63
2022-08-14T15:42:15.794Z,100248.41
2022-08-14T15:44:58.316Z,100240.59
2022-08-14T15:47:33.181Z,100239.41
2022-08-14T15:50:08.775Z,100240.84
2022-08-14T15:52:43.248Z,100243.91
2022-08-14T15:55:16.406Z,100237.03
2022-08-14T15:58:01.338Z,100224.31
2022-08-14T16:00:51.859Z,100217.72
2022-08-14T16:03:24.797Z,100225.84
2022-08-14T16:05:57.303Z,100227.28
2022-08-14T16:08:30.109Z,100231.72
2022-08-14T16:11:01.977Z,100227.03
2022-08-14T16:13:39.204Z,100213.09
2022-08-14T16:16:51.082Z,100223.16
2022-08-14T16:19:11.247Z,100221.50
2022-08-14T16:22:01.295Z,100226.00
2022-08-14T16:25:01.929Z,100214.13
2022-08-14T16:27:37.071Z,100222.22
2022-08-14T16:30:20.691Z,100208.09
2022-08-14T16:32:56.752Z,100198.63
2022-08-14T16:35:42.291Z,100210.16
2022-08-14T16:38:46.338Z,100205.16
2022-08-14T16:41:22.866Z,100203.75
2022-08-14T16:44:01.436Z,100203.03
2022-08-14T16:46:38.327Z,100190.88
2022-08-14T16:49:16.248Z,100191.44
2022-08-14T16:51:51.390Z,100196.63
2022-08-14T16:54:35.345Z,100185.94
2022-08-14T16:57:22.463Z,100190.88
2022-08-14T16:59:57.771Z,100194.84
2022-08-14T17:02:39.118Z,100192.75
2022-08-14T17:05:21.968Z,100191.13
2022-08-14T17:08:31.644Z,100171.13
2022-08-14T17:11:11.031Z,100175.25
2022-08-14T17:13:57.882Z,100174.19
2022-08-14T17:16:37.472Z,100173.16
2022-08-14T17:19:09.749Z,100161.13
2022-08-14T17:21:47.007Z,100170.63
2022-08-14T17:24:56.985Z,100179.06
2022-08-14T17:30:00.255Z,100167.81
2022-08-14T17:32:44.542Z,100164.88
2022-08-14T17:35:57.553Z,100145.44
2022-08-14T17:41:32.710Z,100160.81
2022-08-14T17:44:34.103Z,100144.72
2022-08-14T17:47:14.510Z,100142.09
2022-08-14T17:49:51.981Z,100142.44
2022-08-14T17:52:34.285Z,100138.78
2022-08-14T17:55:09.947Z,100137.19
2022-08-14T17:57:43.726Z,100146.03
2022-08-14T18:00:17.858Z,100147.28
2022-08-14T18:02:51.233Z,100156.47
2022-08-14T18:06:07.730Z,100140.72
2022-08-14T18:08:32.612Z,100143.13
2022-08-14T18:11:04.142Z,100136.06
2022-08-14T18:13:51.890Z,100139.22
2022-08-14T18:16:23.046Z,100118.69
2022-08-14T18:18:53.985Z,100131.41
2022-08-14T18:21:41.927Z,100121.59
2022-08-14T18:24:28.221Z,100109.72
2022-08-14T18:27:09.432Z,100129.38
2022-08-14T18:29:54.998Z,100119.56
2022-08-14T18:32:47.280Z,100123.28
2022-08-14T18:35:21.070Z,100123.31
2022-08-14T18:37:55.460Z,100122.91
2022-08-14T18:40:35.096Z,100122.47
2022-08-14T18:43:07.412Z,100128.50
2022-08-14T18:45:41.491Z,100128.16
2022-08-14T18:48:50.084Z,100112.00
2022-08-14T18:51:45.350Z,100119.03
2022-08-14T18:54:33.009Z,100128.94
2022-08-14T18:57:05.682Z,100129.06
2022-08-14T18:59:42.304Z,100114.78
2022-08-14T19:02:44.182Z,100123.13
2022-08-14T19:05:15.128Z,100130.31
2022-08-14T19:07:48.384Z,100123.59
2022-08-14T19:10:37.252Z,100104.91
2022-08-14T19:13:12.931Z,100126.34
2022-08-14T19:15:56.066Z,100122.72
2022-08-14T19:18:28.876Z,100114.78
2022-08-14T19:21:01.637Z,100107.25
2022-08-14T19:23:44.100Z,100117.22
2022-08-14T19:26:35.875Z,100103.72
2022-08-14T19:29:36.210Z,100099.38
2022-08-14T19:32:41.007Z,100105.38
2022-08-14T19:35:59.900Z,100109.75
2022-08-14T19:38:57.331Z,100105.38
2022-08-14T19:41:30.462Z,100113.41
2022-08-14T19:44:19.167Z,100111.88
2022-08-14T19:47:01.755Z,100124.66
2022-08-14T19:50:07.955Z,100124.22
2022-08-14T19:52:30.015Z,100114.28
2022-08-14T19:55:16.545Z,100108.69
2022-08-14T19:57:52.294Z,100115.84
2022-08-14T20:00:30.278Z,100127.81
2022-08-14T20:03:10.905Z,100136.56
2022-08-14T20:05:42.879Z,100107.97
2022-08-14T20:11:01.368Z,100117.09
2022-08-14T20:12:01.135Z,100122.59
2022-08-14T20:14:20.370Z,100124.56
2022-08-14T20:17:03.251Z,100129.72
2022-08-14T20:19:37.225Z,100137.31
2022-08-14T20:22:37.580Z,100131.38
2022-08-14T20:25:15.245Z,100123.44
2022-08-14T20:27:49.924Z,100123.88
2022-08-14T20:30:34.671Z,100110.81
2022-08-14T20:33:11.295Z,100121.09
2022-08-14T20:35:49.343Z,100118.66
2022-08-14T20:38:30.539Z,100123.09
2022-08-14T20:41:05.756Z,100127.00
2022-08-14T20:43:58.611Z,100117.06
2022-08-14T20:46:31.690Z,100115.44
2022-08-14T20:49:03.658Z,100119.06
2022-08-14T20:51:47.346Z,100135.41
2022-08-14T20:54:34.062Z,100124.66
2022-08-14T20:57:12.056Z,100116.72
2022-08-14T20:59:50.409Z,100102.44
2022-08-14T21:02:46.508Z,100097.28
2022-08-14T21:05:34.427Z,100109.59
2022-08-14T21:08:08.368Z,100084.63
2022-08-14T21:10:54.967Z,100105.66
2022-08-14T21:14:19.481Z,100104.13
2022-08-14T21:16:33.003Z,100110.88
2022-08-14T21:19:06.002Z,100120.75
2022-08-14T21:21:41.840Z,100102.88
2022-08-14T21:24:38.725Z,100100.09
2022-08-14T21:27:13.003Z,100098.13
2022-08-14T21:29:55.056Z,100106.09
2022-08-14T21:32:46.958Z,100112.50
2022-08-14T21:35:22.987Z,100109.72
2022-08-14T21:37:53.933Z,100106.22
2022-08-14T21:40:40.278Z,100100.22
2022-08-14T21:43:17.925Z,100120.91
2022-08-14T21:45:53.384Z,100128.94
2022-08-14T21:48:29.272Z,100120.66
2022-08-14T21:51:53.578Z,100073.06
2022-08-14T21:54:00.261Z,100106.28
2022-08-14T21:56:38.866Z,100102.72
2022-08-14T21:59:18.087Z,100115.47
2022-08-14T22:02:01.975Z,100116.28
2022-08-14T22:04:40.439Z,100140.19
2022-08-14T22:07:17.067Z,100143.38
2022-08-14T22:09:55.521Z,100142.63
2022-08-14T22:12:58.736Z,100141.03
2022-08-14T22:15:19.158Z,100133.50
2022-08-14T22:17:55.228Z,100155.00
2022-08-14T22:20:29.562Z,100168.16
2022-08-14T22:23:05.536Z,100166.56
2022-08-14T22:25:41.230Z,100150.19
2022-08-14T22:28:17.910Z,100142.69
2022-08-14T22:30:55.293Z,100133.88
2022-08-14T22:33:31.306Z,100142.56
2022-08-14T22:36:25.616Z,100149.72
2022-08-14T22:38:57.634Z,100159.28
2022-08-14T22:41:32.654Z,100152.94
2022-08-14T22:44:11.210Z,100161.72
2022-08-14T22:46:43.271Z,100146.69
2022-08-14T22:50:29.306Z,100161.47
2022-08-14T22:52:49.331Z,100158.66
2022-08-14T22:55:05.968Z,100160.34
2022-08-14T22:57:37.886Z,100161.09
2022-08-14T23:00:25.374Z,100159.59
2022-08-14T23:03:04.144Z,100154.84
2022-08-14T23:05:38.816Z,100150.47
2022-08-14T23:08:56.277Z,100151.31
2022-08-14T23:11:10.317Z,100150.13
2022-08-14T23:13:43.598Z,100148.94
2022-08-14T23:16:20.085Z,100161.31
2022-08-14T23:18:53.633Z,100152.19
2022-08-14T23:21:28.718Z,100144.28
2022-08-14T23:23:59.906Z,100147.13
2022-08-14T23:26:49.449Z,100142.41
2022-08-14T23:29:25.094Z,100149.56
2022-08-14T23:31:56.884Z,100145.59
2022-08-14T23:34:29.588Z,100151.13
2022-08-14T23:37:03.694Z,100146.38
2022-08-14T23:39:35.447Z,100156.75
2022-08-14T23:42:12.045Z,100147.25
2022-08-14T23:44:47.597Z,100163.19
2022-08-14T23:47:26.806Z,100163.59
2022-08-14T23:50:03.651Z,100162.38
2022-08-14T23:52:51.160Z,100170.38
2022-08-14T23:55:33.287Z,100151.31
2022-08-14T23:58:03.907Z,100160.06
